Погода Шаталовкана 2 недели

Белгородская область, Россия

24 мая-06 июня
  • 24мая
    Сегодня
    +7°
    +22°
    Ясно и безоблачно
    ВремяПогодаТемператураВлажностьДавлениеВетер, м/сВероятность осадков
    00:00Ясно и безоблачно+13°C32 %749 мм6.2 м/с2 %
    03:00Ясно и безоблачно+11°C34 %750 мм5.5 м/с2 %
    06:00Ясно и безоблачно+10°C37 %751 мм4.8 м/с2 %
    09:00Ясно и безоблачно+16°C37 %752 мм5.5 м/с2 %
    12:00Ясно и безоблачно+20°C30 %753 мм5.4 м/с2 %
    15:00Ясно и безоблачно+22°C22 %752 мм5.6 м/с2 %
    18:00Ясно и безоблачно+20°C18 %752 мм5.6 м/с2 %
    21:00Ясно и безоблачно+14°C26 %753 мм4.0 м/с2 %
  • 25мая
    Суббота
    +7°
    +23°
    Практически безоблачно
    ВремяПогодаТемператураВлажностьДавлениеВетер, м/сВероятность осадков
    00:00Ясно и безоблачно+11°C35 %753 мм3.3 м/с2 %
    03:00Ясно и безоблачно+9°C43 %753 мм2.6 м/с2 %
    06:00Ясно и безоблачно+9°C46 %754 мм3.3 м/с2 %
    09:00Ясно и безоблачно+16°C29 %754 мм3.5 м/с2 %
    12:00Ясно и безоблачно+20°C23 %754 мм3.5 м/с2 %
    15:00Практически безоблачно+22°C21 %752 мм3.0 м/с2 %
    18:00Облачно с прояснениями+22°C22 %751 мм2.8 м/с2 %
    21:00Ясно и безоблачно+15°C38 %750 мм2.2 м/с2 %
  • 26мая
    Воскресенье
    +10°
    +25°
    Облачно с прояснениями
    ВремяПогодаТемператураВлажностьДавлениеВетер, м/сВероятность осадков
    00:00Ясно и безоблачно+12°C44 %750 мм2.2 м/с2 %
    03:00Ясно и безоблачно+8°C59 %750 мм2.3 м/с2 %
    06:00Практически безоблачно+12°C53 %749 мм1.8 м/с2 %
    09:00Ясно и безоблачно+19°C27 %750 мм2.2 м/с2 %
    12:00Ясно и безоблачно+23°C23 %749 мм3.2 м/с2 %
    15:00Облачно с прояснениями+25°C21 %748 мм2.9 м/с2 %
    18:00Практически безоблачно+24°C21 %747 мм3.0 м/с2 %
    21:00Ясно и безоблачно+16°C40 %747 мм2.3 м/с2 %
  • 27мая
    Понедельник
    +13°
    +28°
    Облачно с прояснениями
    ВремяПогодаТемператураВлажностьДавлениеВетер, м/сВероятность осадков
    00:00Ясно и безоблачно+13°C49 %747 мм2.0 м/с2 %
    03:00Ясно и безоблачно+13°C54 %748 мм1.7 м/с2 %
    06:00Ясно и безоблачно+14°C53 %748 мм3.2 м/с2 %
    09:00Ясно и безоблачно+23°C30 %749 мм3.7 м/с2 %
    12:00Ясно и безоблачно+26°C27 %749 мм4.4 м/с5 %
    15:00Облачно с прояснениями+27°C26 %748 мм5.3 м/с10 %
    18:00Практически безоблачно+25°C35 %748 мм5.9 м/с8 %
    21:00Ясно и безоблачно+20°C49 %748 мм3.7 м/с2 %
  • 28мая
    Вторник
    +13°
    +28°
    Небольшая облачность
    ВремяПогодаТемператураВлажностьДавлениеВетер, м/сВероятность осадков
    00:00Ясно и безоблачно+16°C61 %749 мм3.2 м/с2 %
    03:00Ясно и безоблачно+14°C68 %748 мм3.2 м/с2 %
    06:00Ясно и безоблачно+14°C64 %748 мм3.6 м/с2 %
    09:00Ясно и безоблачно+21°C41 %749 мм3.3 м/с2 %
    12:00Ясно и безоблачно+26°C29 %749 мм3.6 м/с2 %
    15:00Небольшая облачность+28°C25 %748 мм3.2 м/с2 %
    18:00Практически безоблачно+26°C25 %747 мм3.8 м/с2 %
    21:00Ясно и безоблачно+20°C34 %747 мм2.9 м/с2 %
Мы используем cookies
Соглашаюсь